Южа

Карта отелей и гостиниц, располагающихся рядом с аэропортом Южа :

Южа Ивановская область 56° 34' 3.6012" N, 42° 1' 31.08" E
Код аэродрома ИКАО
ZB02
Код аэродрома RU
ЗБ02
Координаты
N56.56767° E042.02530°
Превышение над уровнем моря
120
Основная полоса
02/20
Курс магнитный
022/202
Длина основной ВПП
670
Ширина основной ВПП
40
Покрытие основной ВПП
Нетвёрдое (грунт)
Освещение ВПП
Нет
Тип: 
Аэродром
Класс аэродрома: 
Принадлежность: 
ГА
Статус: 
Недействующий
Сайт: 
E-mail аэродрома: 
Страна: 
Россия
Регион: 
Ивановская область
Город: 
Дополнительная информация: 

Найти трансфер

С помощью этой формы Вы можете найти трансфер из аэропорта Южа в город, аэропорт или вокзал:

Погода в аэропортах:

Авиационная погода в Челябинске

Регион: 
Погода METAR: 
USCC 221800Z 11001MPS 2800 BR FU NSC M21/M24 Q1030 R27/420350 NOSIG RMK QFE752
Время наблюдения
2022-01-22T18:00:00Z
Температура C
-21.0
Точка росы
-24.0
Направление ветра
110
Скорость ветра (узлы)
2
Метео видимость
1.74
Облачность
CLR
Нижняя граница облачности (футы)
Явления погоды
BR FU
Условия полета
IFR
Аэропорт подробнее: 
CLR — нет облаков ниже 3000 м
BR – дымка (видимость от 1 до 9 км); FU – дым (видимость менее 10 км);

Авиационная погода в аэропорту Международный

Регион: 
Погода METAR: 
UKLL 221800Z 31005MPS 9000 -SHSN SCT020CB BKN020 M03/M06 Q1020 NOSIG
Время наблюдения
2022-01-22T18:00:00Z
Температура C
-3.0
Точка росы
-6.0
Направление ветра
310
Скорость ветра (узлы)
10
Метео видимость
5.59
Облачность
SCT
BKN
Нижняя граница облачности (футы)
2000
2000
Явления погоды
-SHSN
Условия полета
MVFR
Аэропорт подробнее: 
SCT – разбросанная отдельная облачность; BKN – значительная (рассеянная, разорванная) облачность;
-SHSN - слабый ливневой снег;

Авиационная погода в Зонгулдаке

Регион: 
Погода METAR: 
LTAS 221150Z 11001KT 2200 -SHRASN BR SCT003 BKN025 BKN080 02/01 Q1014
Время наблюдения
2022-01-22T11:50:00Z
Температура C
2.0
Точка росы
1.0
Направление ветра
110
Скорость ветра (узлы)
1
Метео видимость
1.37
Облачность
SCT
BKN
BKN
Нижняя граница облачности (футы)
300
2500
8000
Явления погоды
-SHRA -SHSN BR
Условия полета
IFR
SCT – разбросанная отдельная облачность; BKN – значительная (рассеянная, разорванная) облачность;
-SHRA - слабый ливневой дождь; -SHSN - слабый ливневой снег; BR – дымка (видимость от 1 до 9 км);

Авиационная погода в Усть-Каменогорске

Регион: 
Погода METAR: 
UASK 221800Z 00000MPS 0050 R30/M0200 FZFG BKN001 M26/M28 Q1031 NOSIG RMK QBB050 QFE747/0996
Время наблюдения
2022-01-22T18:00:00Z
Температура C
-26.0
Точка росы
-28.0
Направление ветра
0
Скорость ветра (узлы)
0
Метео видимость
0.03
Облачность
BKN
Нижняя граница облачности (футы)
100
Явления погоды
FZFG
Условия полета
LIFR
Аэропорт подробнее: 
BKN – значительная (рассеянная, разорванная) облачность;
FZFG - переохлаждённый туман;